Weather observations for the past three days for
Duluth - Sky Harbor Airport
Imperial (Metric)
Date Time (cdt) Wind (mph) Vis. (mi.) Weather Sky Cond. Temperature (ºF) Relative Humidity Wind Chill (°F) Heat Index (°F) Pressure Precipitation (in)
Air Dwpt 6 hour altimeter (in) sea level (mb) 1 hr 3 hr 6 hr
Max. Min.
31 00:55 NE 21 G 28 9.00 Overcast and Breezy OVC004 62.6 62.6 100% 29.82 0.0 0.04
31 00:35 Calm 5.00 Thunderstorm Light Rain Fog/Mist BKN004 OVC011 0 0 0% 0 0.0
31 00:15 NE 24 G 32 4.00 Light Rain Fog/Mist and Breezy FEW004 OVC011 62.6 62.6 100% 29.83 0.0
30 23:55 NE 26 7.00 Thunderstorm in Vicinity Rain and Windy SCT004 OVC010 64.4 64.4 100% 29.85 0.0 0.02
30 23:35 NE 31 G 37 4.00 Thunderstorm in Vicinity Rain Fog/Mist and Windy OVC003 62.6 62.6 100% 29.84 0.0
30 23:15 NE 24 4.00 Thunderstorm in Vicinity Rain Fog/Mist and Breezy OVC004 62.6 62.6 100% 29.84 0.0
30 22:55 NE 20 G 25 6.00 Fog/Mist OVC004 62.6 62.6 100% 29.85 0.0 0.01
30 22:35 NE 22 6.00 Thunderstorm in Vicinity Rain Fog/Mist and Breezy OVC004 62.6 62.6 100% 29.85 0.0
30 22:15 NE 20 7.00 Overcast OVC004 62.6 62.6 100% 29.86 0.0
30 21:55 NE 17 7.00 Overcast OVC004 62.6 62.6 100% 29.85 0.0
30 21:35 NE 18 7.00 Overcast OVC004 62.6 62.6 100% 29.86 0.0
30 21:15 E 15 8.00 Overcast OVC004 62.6 62.6 100% 29.87 0.0
30 20:55 NE 18 8.00 Overcast OVC004 62.6 62.6 100% 29.86 0.0
30 20:35 NE 16 G 23 9.00 Overcast OVC004 62.6 62.6 100% 29.86 0.0
30 20:15 NE 20 9.00 Overcast OVC004 62.6 62.6 100% 29.85 0.0
30 19:55 NE 22 G 29 8.00 Overcast and Breezy OVC004 62.6 62.6 100% 29.85 0.0
30 19:35 NE 23 7.00 Overcast and Breezy OVC004 62.6 62.6 100% 29.85 0.0
30 19:15 NE 23 7.00 Overcast and Breezy OVC004 62.6 62.6 100% 29.86 0.0
30 18:55 NE 22 7.00 Overcast and Breezy OVC004 62.6 62.6 100% 29.87 0.0
30 18:35 NE 22 G 28 7.00 Overcast and Breezy OVC004 62.6 62.6 100% 29.86 0.0
30 18:15 NE 20 G 26 8.00 Overcast OVC004 62.6 62.6 100% 29.88 0.0
30 17:55 NE 22 9.00 Overcast and Breezy OVC004 62.6 62.6 100% 29.87 0.0
30 17:35 NE 23 9.00 Overcast and Breezy OVC004 62.6 62.6 100% 29.87 0.0
30 17:15 NE 23 G 30 9.00 Overcast and Breezy OVC005 64.4 64.4 100% 29.86 0.0
30 16:55 NE 24 9.00 Overcast and Breezy OVC004 64.4 62.6 94% 29.87 0.0
30 16:35 NE 26 G 33 7.00 Windy NULL 64.4 64.4 100% 29.87 0.0
30 16:15 NE 26 7.00 Overcast and Windy OVC004 64.4 62.6 94% 29.88 0.0
30 15:55 NE 25 G 31 8.00 Overcast and Breezy OVC004 62.6 62.6 100% 29.89 0.0
30 15:35 NE 25 G 35 9.00 Overcast and Breezy OVC005 64.4 62.6 94% 29.89 0.0
30 15:15 NE 26 G 32 10.00 Overcast and Windy OVC005 64.4 64.4 100% 29.89 0.0
30 14:55 NE 29 10.00 Mostly Cloudy and Windy BKN005 64.4 64.4 100% 29.89 0.0
30 14:35 NE 26 G 32 9.00 Overcast and Windy OVC004 64.4 64.4 100% 29.89 0.0
30 14:15 NE 25 G 33 7.00 Overcast and Breezy OVC004 64.4 62.6 94% 29.88 0.0
30 13:55 NE 26 7.00 Overcast and Windy OVC003 64.4 64.4 100% 29.88 0.0
30 13:35 NE 24 7.00 Overcast and Breezy OVC004 64.4 64.4 100% 29.88 0.0
30 13:15 NE 23 G 31 7.00 Overcast and Breezy OVC004 64.4 64.4 100% 29.88 0.0
30 12:55 NE 23 7.00 Overcast and Breezy OVC004 62.6 62.6 100% 29.9 0.0
30 12:35 NE 22 G 29 7.00 Overcast and Breezy OVC004 62.6 62.6 100% 29.9 0.0
30 12:15 NE 25 7.00 Overcast and Breezy OVC004 64.4 62.6 94% 29.9 0.0
30 11:55 NE 24 G 30 7.00 Overcast and Breezy OVC004 62.6 62.6 100% 29.89 0.0
30 11:35 NE 26 9.00 Overcast and Windy OVC004 64.4 62.6 94% 29.9 0.0
30 11:15 NE 24 7.00 Overcast and Breezy BKN004 OVC016 62.6 62.6 100% 29.9 0.0
30 10:55 NE 21 G 29 5.00 Light Rain Fog/Mist and Breezy BKN004 BKN014 62.6 62.6 100% 29.9 0.0 0.02
30 10:35 NE 26 4.00 Light Rain Fog/Mist and Windy BKN003 BKN013 62.6 62.6 100% 29.9 0.0
30 10:15 NE 21 G 28 2.00 Light Rain Fog/Mist and Breezy OVC003 62.6 62.6 100% 29.92 0.0
30 09:55 NE 24 3.00 Light Rain Fog/Mist and Breezy OVC003 62.6 62.6 100% 29.92 0.0
30 09:35 NE 18 7.00 Overcast OVC004 62.6 62.6 100% 29.91 0.0
30 09:15 NE 21 8.00 Overcast and Breezy BKN007 OVC013 62.6 62.6 100% 29.89 0.0
30 08:55 NE 21 8.00 Mostly Cloudy and Breezy FEW005 BKN013 62.6 62.6 100% 29.89 0.0
30 08:35 NE 21 G 28 6.00 Fog/Mist and Breezy BKN003 BKN014 62.6 62.6 100% 29.89 0.0
30 08:15 NE 21 5.00 Light Rain Fog/Mist and Breezy OVC003 62.6 62.6 100% 29.89 0.0
30 07:55 NE 18 3.00 Light Rain Fog/Mist OVC003 62.6 62.6 100% 29.9 0.0
30 07:35 NE 20 7.00 Overcast OVC004 62.6 62.6 100% 29.9 0.0
30 07:15 NE 16 6.00 Fog/Mist OVC003 62.6 62.6 100% 29.9 0.0
30 06:55 NE 16 5.00 Fog/Mist OVC003 62.6 62.6 100% 29.9 0.0
30 06:35 NE 15 7.00 Overcast OVC003 62.6 62.6 100% 29.89 0.0
30 06:15 NE 16 8.00 Overcast OVC004 62.6 62.6 100% 29.88 0.0
30 05:55 NE 18 9.00 Overcast OVC004 62.6 62.6 100% 29.87 0.0
30 05:35 NE 17 9.00 Overcast OVC004 62.6 62.6 100% 29.89 0.0
30 05:15 NE 17 6.00 Fog/Mist OVC003 62.6 62.6 100% 29.88 0.0
30 04:55 NE 21 8.00 Overcast and Breezy OVC004 62.6 62.6 100% 29.87 0.0
30 04:35 NE 20 6.00 Fog/Mist OVC003 62.6 62.6 100% 29.87 0.0
30 04:15 NE 21 5.00 Fog/Mist and Breezy BKN003 OVC014 62.6 62.6 100% 29.87 0.0
30 03:55 NE 17 9.00 Overcast SCT004 OVC014 62.6 62.6 100% 29.87 0.0
30 03:35 NE 18 10.00 Overcast FEW004 BKN013 OVC020 62.6 62.6 100% 29.86 0.0
30 03:15 NE 15 10.00 Overcast FEW005 OVC013 62.6 62.6 100% 29.87 0.0
30 02:55 NE 14 10.00 Overcast SCT005 OVC013 62.6 62.6 100% 29.87 0.0
30 02:35 NE 13 10.00 Overcast BKN005 OVC013 62.6 62.6 100% 29.87 0.0
30 02:15 NE 13 10.00 Overcast BKN007 OVC013 62.6 62.6 100% 29.87 0.0
30 01:55 Vrbl 6 G 17 10.00 Overcast SCT008 OVC012 64.4 62.6 94% 29.87 0.0
30 01:35 E 13 10.00 Overcast OVC012 64.4 62.6 94% 29.88 0.0
30 01:15 NE 15 10.00 Overcast OVC011 64.4 62.6 94% 29.88 0.0
30 00:55 NE 15 10.00 Overcast OVC012 62.6 62.6 100% 29.9 0.0
30 00:35 NE 16 10.00 Overcast OVC012 62.6 62.6 100% 29.9 0.0
30 00:15 NE 14 10.00 Overcast OVC013 62.6 62.6 100% 29.91 0.0
29 23:55 NE 15 10.00 Overcast BKN012 OVC020 62.6 62.6 100% 29.91 0.0
29 23:35 NE 13 10.00 Overcast FEW013 OVC020 62.6 62.6 100% 29.91 0.0
29 23:15 NE 12 G 17 10.00 Overcast SCT004 BKN013 OVC021 62.6 62.6 100% 29.9 0.0
29 22:55 NE 13 10.00 Overcast BKN004 BKN008 OVC012 62.6 62.6 100% 29.9 0.0
29 22:35 NE 10 10.00 Overcast BKN007 OVC010 62.6 62.6 100% 29.9 0.0
29 22:15 NE 10 G 16 10.00 Overcast OVC009 62.6 62.6 100% 29.9 0.0
29 21:55 NE 14 10.00 Overcast OVC008 62.6 62.6 100% 29.89 0.0
29 21:35 NE 10 10.00 Overcast OVC008 62.6 62.6 100% 29.9 0.0
29 21:15 NE 13 10.00 Overcast OVC008 62.6 62.6 100% 29.9 0.0
29 20:55 NE 13 10.00 Overcast OVC008 62.6 62.6 100% 29.89 0.0
29 20:35 NE 14 10.00 Overcast OVC008 62.6 62.6 100% 29.89 0.0
29 20:15 NE 15 10.00 Overcast OVC008 62.6 62.6 100% 29.88 0.0
29 19:55 NE 9 10.00 Overcast OVC006 62.6 62.6 100% 29.88 0.0
29 19:35 NE 9 10.00 Overcast OVC006 62.6 62.6 100% 29.88 0.0
29 19:15 NE 7 10.00 Overcast OVC006 64.4 64.4 100% 29.89 0.0
29 18:55 E 6 4.00 Fog/Mist BKN004 OVC010 64.4 62.6 94% 29.89 0.0
29 18:35 E 7 5.00 Fog/Mist SCT005 BKN010 OVC026 62.6 62.6 100% 29.89 0.0
29 18:15 E 9 1.75 Light Rain Fog/Mist FEW005 SCT014 BKN018 62.6 62.6 100% 29.89 0.0
29 17:55 Vrbl 6 4.00 Light Rain Fog/Mist OVC017 62.6 62.6 100% 29.89 0.0
29 17:35 NE 10 2.50 Light Rain Fog/Mist BKN017 OVC023 62.6 62.6 100% 29.89 0.0
29 17:15 Vrbl 7 G 16 10.00 Overcast SCT020 BKN024 OVC031 62.6 62.6 100% 29.89 0.0
29 16:35 NE 13 10.00 Overcast FEW021 OVC035 62.6 62.6 100% 29.88 0.0
29 16:15 NE 15 10.00 Overcast FEW004 SCT022 OVC035 62.6 62.6 100% 29.88 0.0
29 15:35 NE 13 10.00 NULL NULL 62.6 62.6 100% 29.89 0.0
29 15:15 NE 15 10.00 NULL NULL 64.4 64.4 100% 29.89 0.0
29 14:55 NE 17 10.00 Mostly Cloudy SCT026 SCT032 BKN047 64.4 64.4 100% 29.89 0.0
29 14:35 NE 17 10.00 Overcast FEW011 BKN021 OVC030 64.4 64.4 100% 29.89 0.0
29 14:15 NE 17 10.00 Overcast BKN011 OVC021 64.4 64.4 100% 29.9 0.0
29 13:55 NE 16 10.00 Overcast BKN010 OVC021 64.4 64.4 100% 29.9 0.0
29 13:35 NE 16 10.00 NULL NULL 64.4 64.4 100% 29.9 0.0
29 13:15 NE 18 0.00 NULL NULL 64.4 62.6 94% 29.9 0.0
29 12:55 NE 21 10.00 Overcast and Breezy OVC012 62.6 62.6 100% 29.9 0.0
29 12:35 NE 20 10.00 Overcast OVC012 62.6 62.6 100% 29.91 0.0
29 12:15 NE 17 10.00 Overcast OVC012 62.6 62.6 100% 29.91 0.0
29 11:55 NE 18 G 26 10.00 Overcast OVC011 62.6 62.6 100% 29.92 0.0
29 11:35 NE 14 10.00 Overcast OVC011 64.4 64.4 100% 29.92 0.0
29 11:15 NE 18 10.00 Overcast OVC012 62.6 62.6 100% 29.92 0.0
29 10:55 NE 20 10.00 Overcast OVC012 64.4 64.4 100% 29.91 0.0
29 10:35 NE 18 10.00 Light Rain OVC015 62.6 62.6 100% 29.91 0.0
29 10:15 E 8 G 20 10.00 Overcast FEW007 BKN013 OVC017 62.6 62.6 100% 29.91 0.0
29 09:55 Calm 10.00 Overcast OVC012 64.4 64.4 100% 0 0.0 0.01
29 09:35 Vrbl 6 4.00 Light Rain Fog/Mist OVC013 64.4 64.4 100% 29.93 0.0
29 09:15 NE 8 8.00 Light Rain SCT008 OVC012 62.6 62.6 100% 29.94 0.0
29 08:55 NE 15 6.00 Light Rain Fog/Mist BKN007 62.6 62.6 100% 29.95 0.0 0.05
29 08:35 NE 5 7.00 Light Rain FEW005 FEW010 SCT036 62.6 62.6 100% 29.96 0.0
29 08:15 NE 5 4.00 Light Rain Fog/Mist SCT006 BKN011 BKN037 60.8 60.8 100% 29.97 0.0
29 07:55 NE 8 5.00 Light Rain Fog/Mist BKN005 BKN040 OVC120 62.6 60.8 94% 29.97 0.0 0.03
29 07:35 E 6 G 14 6.00 Light Rain Fog/Mist FEW006 SCT047 OVC110 62.6 60.8 94% 29.96 0.0
29 07:15 NE 14 4.00 Light Rain Fog/Mist SCT006 BKN070 OVC100 60.8 60.8 100% 29.96 0.0
29 06:55 NE 15 10.00 Overcast BKN005 OVC100 62.6 62.6 100% 29.97 0.0
29 06:35 NE 16 10.00 Overcast OVC005 62.6 62.6 100% 29.96 0.0
29 06:15 NE 15 10.00 Overcast OVC005 62.6 62.6 100% 29.96 0.0
29 05:55 NE 15 10.00 Overcast BKN005 OVC043 62.6 62.6 100% 29.95 0.0
29 05:35 NE 13 10.00 Overcast OVC005 62.6 62.6 100% 29.96 0.0
29 05:15 NE 13 10.00 Overcast OVC005 62.6 62.6 100% 29.95 0.0
29 04:55 NE 14 10.00 Overcast OVC006 62.6 62.6 100% 29.95 0.0
29 04:35 NE 12 10.00 Overcast OVC007 62.6 62.6 100% 29.96 0.0
29 04:15 NE 12 10.00 Overcast BKN007 BKN080 OVC090 62.6 62.6 100% 29.97 0.0
29 03:55 NE 10 10.00 Overcast FEW006 OVC085 62.6 62.6 100% 29.98 0.0
29 03:35 E 7 10.00 Overcast OVC080 62.6 62.6 100% 29.98 0.0
29 03:15 NE 13 10.00 Overcast FEW065 OVC080 62.6 62.6 100% 29.99 0.0
29 02:55 NE 15 10.00 Overcast FEW029 BKN065 OVC085 62.6 62.6 100% 29.98 0.0
29 02:35 NE 15 10.00 Overcast SCT047 BKN055 OVC095 62.6 60.8 94% 29.98 0.0
29 02:15 NE 17 10.00 Overcast SCT048 BKN055 OVC075 62.6 62.6 100% 29.99 0.0
29 01:55 NE 16 10.00 Overcast BKN055 OVC080 62.6 62.6 100% 29.99 0.0
29 01:35 NE 16 10.00 Overcast FEW055 OVC080 62.6 62.6 100% 30 0.0
29 01:15 NE 16 10.00 Overcast BKN075 OVC090 62.6 60.8 94% 30 0.0
29 00:55 NE 15 10.00 Overcast OVC075 62.6 62.6 100% 30 0.0
29 00:35 NE 15 10.00 Overcast OVC075 64.4 60.8 88% 30 0.0
29 00:15 NE 14 10.00 Mostly Cloudy FEW050 BKN070 64.4 60.8 88% 30 0.0
28 23:55 NE 14 10.00 Mostly Cloudy FEW033 SCT045 BKN075 64.4 60.8 88% 30.01 0.0
28 23:35 NE 13 10.00 Mostly Cloudy BKN048 64.4 60.8 88% 30 0.0
28 23:15 NE 13 10.00 Mostly Cloudy FEW039 BKN049 BKN055 64.4 60.8 88% 30.01 0.0
28 22:55 NE 13 10.00 Overcast BKN036 BKN042 OVC049 64.4 60.8 88% 30.02 0.0
28 22:35 NE 9 10.00 Overcast SCT034 BKN041 OVC048 64.4 60.8 88% 30.01 0.0
28 22:15 NE 9 10.00 Mostly Cloudy FEW039 BKN048 BKN060 64.4 60.8 88% 30.01 0.0
28 21:55 NE 10 10.00 Partly Cloudy FEW040 FEW046 SCT110 64.4 60.8 88% 30.02 0.0
28 21:35 NE 13 10.00 A Few Clouds FEW043 FEW050 64.4 60.8 88% 30.02 0.0
28 21:15 NE 13 10.00 A Few Clouds FEW045 64.4 62.6 94% 30.02 0.0
28 20:55 NE 12 10.00 A Few Clouds FEW045 64.4 62.6 94% 30.02 0.0
28 20:35 NE 10 10.00 Fair CLR 64.4 62.6 94% 30.02 0.0
28 20:15 NE 12 10.00 A Few Clouds FEW006 62.6 62.6 100% 30.02 0.0
28 19:55 NE 9 10.00 Partly Cloudy SCT006 62.6 62.6 100% 30.01 0.0
28 19:35 NE 9 10.00 A Few Clouds FEW005 62.6 62.6 100% 30.02 0.0
28 19:15 NE 8 10.00 A Few Clouds FEW005 64.4 64.4 100% 30.01 0.0
28 18:55 NE 8 10.00 A Few Clouds FEW005 64.4 64.4 100% 30.02 0.0
28 18:35 NE 8 10.00 Fair CLR 64.4 64.4 100% 30.03 0.0
28 18:15 NE 7 10.00 Fair CLR 64.4 64.4 100% 30.03 0.0
28 17:55 NE 8 10.00 Fair CLR 66.2 62.6 88% 30.03 0.0
28 17:35 NE 7 10.00 Fair CLR 66.2 62.6 88% 30.03 0.0
28 17:15 NE 6 10.00 Fair CLR 66.2 62.6 88% 30.04 0.0
28 16:55 NE 8 9.00 Fair CLR 66.2 62.6 88% 30.04 0.0
28 16:35 NE 8 10.00 Fair CLR 66.2 62.6 88% 30.04 0.0
28 16:15 NE 6 10.00 Fair CLR 68 62.6 83% 30.05 0.0
28 15:55 NE 7 10.00 Fair CLR 68 62.6 83% 30.05 0.0
28 15:35 NE 7 10.00 Fair CLR 68 60.8 78% 30.06 0.0
28 15:15 NE 7 10.00 Fair CLR 68 62.6 83% 30.07 0.0
28 14:55 NE 9 10.00 Fair CLR 68 60.8 78% 30.07 0.0
28 14:35 NE 6 10.00 Fair CLR 66.2 60.8 83% 30.08 0.0
28 14:15 E 6 10.00 Fair CLR 66.2 60.8 83% 30.08 0.0
28 13:55 NE 6 10.00 Fair CLR 66.2 60.8 83% 30.09 0.0
28 13:35 E 5 10.00 Fair CLR 66.2 60.8 83% 30.11 0.0
28 13:15 E 6 10.00 Fair CLR 66.2 59 78% 30.11 0.0
28 12:55 NE 6 10.00 Fair CLR 66.2 59 78% 30.12 0.0
28 12:35 NE 6 10.00 Fair CLR 66.2 59 78% 30.13 0.0
28 12:15 NE 6 10.00 Fair CLR 66.2 59 78% 30.14 0.0
28 11:55 NE 6 10.00 Fair CLR 64.4 59 83% 30.14 0.0
28 11:35 NE 6 10.00 Fair CLR 64.4 59 83% 30.14 0.0
28 11:15 NE 6 10.00 Fair CLR 64.4 59 83% 30.14 0.0
28 10:55 NE 6 10.00 Fair CLR 64.4 59 83% 30.14 0.0
28 10:35 NE 7 10.00 Fair CLR 64.4 57.2 78% 30.14 0.0
28 10:15 NE 7 10.00 Fair CLR 64.4 57.2 78% 30.14 0.0
28 09:55 NE 7 10.00 Fair CLR 64.4 57.2 78% 30.15 0.0
28 09:35 NE 6 10.00 A Few Clouds FEW014 64.4 57.2 78% 30.14 0.0
28 09:15 NE 8 10.00 NULL NULL 64.4 57.2 78% 30.15 0.0
28 08:55 NE 9 10.00 Mostly Cloudy BKN015 62.6 59 88% 30.14 0.0
28 08:35 NE 8 10.00 Overcast OVC015 62.6 59 88% 30.14 0.0
28 08:15 NE 13 10.00 Overcast OVC014 62.6 59 88% 30.14 0.0
28 07:55 NE 10 10.00 Overcast OVC014 62.6 57.2 83% 30.13 0.0
28 07:35 NE 12 10.00 Overcast OVC013 62.6 57.2 83% 30.13 0.0
28 07:15 NE 13 10.00 Overcast OVC012 62.6 59 88% 30.12 0.0
28 06:55 NE 13 10.00 Overcast OVC011 62.6 59 88% 30.12 0.0
28 06:35 NE 10 10.00 Overcast OVC011 60.8 59 94% 30.12 0.0
28 06:15 NE 10 10.00 Overcast OVC010 60.8 60.8 100% 30.12 0.0
28 05:55 NE 9 10.00 Overcast OVC010 60.8 60.8 100% 30.11 0.0
28 05:35 E 12 10.00 Overcast OVC012 60.8 60.8 100% 30.11 0.0
28 05:15 NE 10 10.00 Overcast OVC014 60.8 59 94% 30.11 0.0
28 04:55 NE 10 10.00 Overcast BKN015 OVC055 60.8 59 94% 30.1 0.0
28 04:35 E 10 10.00 Overcast BKN014 OVC055 62.6 57.2 83% 30.1 0.0
28 04:15 NE 9 10.00 Overcast BKN013 OVC050 62.6 57.2 83% 30.1 0.0
28 03:55 NE 9 10.00 Overcast SCT013 BKN050 OVC060 62.6 57.2 83% 30.09 0.0
28 03:35 NE 12 10.00 Overcast FEW042 OVC055 62.6 55.4 77% 30.09 0.0
28 03:15 NE 10 10.00 Overcast FEW040 BKN050 OVC060 62.6 55.4 77% 30.1 0.0
28 02:35 N 5 10.00 Mostly Cloudy FEW036 SCT046 BKN055 62.6 55.4 77% 30.1 0.0
28 02:15 NE 7 10.00 Mostly Cloudy BKN060 62.6 59 88% 30.1 0.0
28 01:55 NE 12 10.00 Partly Cloudy SCT060 62.6 59 88% 30.09 0.0
28 01:35 E 9 10.00 Partly Cloudy SCT060 62.6 60.8 94% 30.09 0.0
28 01:15 NE 9 G 15 10.00 Overcast BKN060 OVC070 64.4 60.8 88% 30.09 0.0
Date Time (cdt) Wind (mph) Vis. (mi.) Weather Sky Cond. Air Dwpt Max. Min. Relative Humidity Wind Chill (°F) Heat Index (°F) altimeter (in) sea level (mb) 1 hr 3 hr 6 hr
6 hour
Temperature (ºF) Pressure Precipitation (in)